Aeroporto :
LOGIN :

Iscrizione | Disclaimer

   EN    FR    IT 

 










Sommario :    VFR   VFR Marginale   IFR   IFR Intensivo   IFR Molto Intensivo
Visibilità : 
Base nubi : 
>= 8 km
>= 3000ft
5 / 8 km
1000 / 3000 ft
1500m / 5 km
500 / 1000 ft
800 / 1500m
200 / 500 ft
< 800m
< 200 ft
Simboli :   Temporali  Nebbia  Neve Forte  Precipitazioni Forti  Vento > 20 kt
SIGMETs :   Varie  Temporali  Ghiacco  Turbolenza  Onda orograficha  Ceneri Vulcaniche







- Altitudine del aeroporto : 287 ft
- Carte del aeroporto


LFRL - Lanveoc Poulmic

ULTIMO METAR :
  • 180830Z AUTO 07004KT 030V090 CAVOK 16/13 Q1011 TEMPO SHRA BKN060CB

METARs OBSOLETI :
  • 180800Z AUTO 06004KT 020V080 9999 ///TCU 15/13 Q1011 TEMPO SHRA BKN060CB
  • 180730Z AUTO 05003KT 020V100 CAVOK 15/13 Q1011 TEMPO SHRA BKN060CB
  • 180700Z AUTO 07006KT CAVOK 14/12 Q1011 TEMPO SHRA BKN060CB
  • 180630Z AUTO 05008KT 9999 FEW047 OVC098 14/12 Q1011 TEMPO SHRA BKN060CB

TAF TAF LFRL
Valido dal 18 a 06 ore il 19 a 06 ore UTC


180500Z 1806/1906 04010KT CAVOK
TEMPO 1806/1821 04010G20KT SHRA BKN070TCU
PROB30
TEMPO 1806/1821 BKN060CB
BECMG 1821/1824 3000 -RA BKN005
Nessun NOTAM noto per questo aeroporto.
1 SIGMET conosciuto per la FIR Brest (LFRR) :
 
Temporali affogati
LFRR SIGMET 4 VALID 180800/181000 LFPW
LFRR BREST FIR/UIR EMBD TS OBS WI N4700 W00245 - N4800 W00330 - N4815 W00300 - N4730 W00200 - N4700 W00245 TOP FL350 MOV NE 15KT NC=



MetMap, La meteo Aeronautica in un colpo d'occhio ! - Copyright ORBIFLY Dicembre 2007 - Disclaimer

ORBIFLY MET'MAP TEAM :

Programmazione e sviluppo : Alexandra Zaïnal
Concezione e sviluppo : Baudouin d'Aumeries
Co-Programmazione e sviluppo : Marc-Olivier Méhu
Supporto tecnico e logistico : Manuel Goepfert
Aiuto per la traduzione : Arnaldo La Scala

Contatto : metmap@orbifly.com




FONTI E CREDITI :

   NOAA